Time;durP1;ratioP1;P1;durP2;ratioP2;P2;SDS_P1;SDS_P2;PMS_P1;PMS_P2;Temp;Humidity;BMP_temperature;BMP_pressure;BME280_temperature;BME280_humidity;BME280_pressure;Samples;Min_cycle;Max_cycle;Signal;HPM_P1;HPM_P2
2023/09/28 00:08:03;;;;;;;;;;;19.20;99.90;;;;;;6719431;88;20089;-79
2023/09/28 00:18:04;;;;;;;;;;;19.20;99.90;;;;;;6715157;88;20183;-79
2023/09/28 00:28:05;;;;;;;;;;;19.20;99.90;;;;;;6718948;88;20211;-80
2023/09/28 00:38:07;;;;;;;;;;;19.30;99.90;;;;;;6718961;88;20062;-79
2023/09/28 00:48:11;;;;;;;;;;;19.30;99.90;;;;;;6718920;88;20692;-80
2023/09/28 00:58:11;;;;;;;;;;;19.20;99.90;;;;;;6723217;88;20064;-80
2023/09/28 01:08:19;;;;;;;;;;;19.10;99.90;;;;;;6718621;88;20498;-79
2023/09/28 01:18:22;;;;;;;;;;;19.00;99.90;;;;;;6710802;88;20592;-79
2023/09/28 01:28:22;;;;;;;;;;;19.10;99.90;;;;;;6714565;88;20050;-79
2023/09/28 01:38:28;;;;;;;;;;;19.20;99.90;;;;;;6715025;88;20121;-80
2023/09/28 01:48:28;;;;;;;;;;;19.00;99.90;;;;;;6704363;88;20039;-81
2023/09/28 01:58:29;;;;;;;;;;;18.70;99.90;;;;;;6704571;88;20082;-80
2023/09/28 02:08:30;;;;;;;;;;;18.50;99.90;;;;;;6700675;88;20088;-79
2023/09/28 02:18:30;;;;;;;;;;;18.40;99.90;;;;;;6703956;88;20200;-79
2023/09/28 02:28:31;;;;;;;;;;;18.40;99.90;;;;;;6704011;88;20442;-79
2023/09/28 02:38:31;;;;;;;;;;;18.50;99.90;;;;;;6708648;88;20063;-79
2023/09/28 02:48:31;;;;;;;;;;;18.50;99.90;;;;;;6717939;88;20092;-79
2023/09/28 02:58:32;;;;;;;;;;;18.70;99.90;;;;;;6713636;88;20522;-79
2023/09/28 03:08:32;;;;;;;;;;;18.60;99.90;;;;;;6738489;88;20027;-79
2023/09/28 03:18:33;;;;;;;;;;;18.40;99.90;;;;;;6720452;88;20109;-79
2023/09/28 03:28:33;;;;;;;;;;;18.30;99.90;;;;;;6716188;88;20101;-80
2023/09/28 03:38:34;;;;;;;;;;;18.00;99.90;;;;;;6715010;88;20166;-80
2023/09/28 03:48:35;;;;;;;;;;;18.00;99.90;;;;;;6717208;88;20082;-80
2023/09/28 03:58:35;;;;;;;;;;;17.90;99.90;;;;;;6721985;88;20120;-79
2023/09/28 04:08:37;;;;;;;;;;;18.10;99.90;;;;;;6720181;88;20522;-79
2023/09/28 04:18:37;;;;;;;;;;;17.60;99.90;;;;;;6723391;88;20053;-79
2023/09/28 04:28:38;;;;;;;;;;;17.40;99.90;;;;;;6714528;88;20056;-79
2023/09/28 04:38:38;;;;;;;;;;;17.20;99.90;;;;;;6718110;88;20175;-79
2023/09/28 04:48:39;;;;;;;;;;;17.10;99.90;;;;;;6718962;88;20608;-79
2023/09/28 04:58:39;;;;;;;;;;;17.10;99.90;;;;;;6718732;88;20257;-79
2023/09/28 05:08:39;;;;;;;;;;;17.20;99.90;;;;;;6722544;88;20067;-80
2023/09/28 05:18:41;;;;;;;;;;;17.30;99.90;;;;;;6719692;88;20144;-80
2023/09/28 05:28:42;;;;;;;;;;;17.30;99.90;;;;;;6725251;88;20136;-80
2023/09/28 05:38:42;;;;;;;;;;;17.10;99.90;;;;;;6722761;88;20126;-80
2023/09/28 05:48:42;;;;;;;;;;;17.00;99.90;;;;;;6723709;88;20057;-81
2023/09/28 05:58:43;;;;;;;;;;;16.70;99.90;;;;;;6722063;88;20070;-82
2023/09/28 06:08:45;;;;;;;;;;;16.60;99.90;;;;;;6724507;88;20574;-81
2023/09/28 06:18:46;;;;;;;;;;;16.60;99.90;;;;;;6723721;88;20055;-81
2023/09/28 06:28:46;;;;;;;;;;;16.70;99.90;;;;;;6710036;88;20904;-80
2023/09/28 06:38:47;;;;;;;;;;;17.10;99.90;;;;;;6705634;88;20066;-80
2023/09/28 06:48:49;;;;;;;;;;;17.40;99.90;;;;;;6706074;88;20145;-80
2023/09/28 06:58:50;;;;;;;;;;;17.60;99.90;;;;;;6713616;88;20097;-81
2023/09/28 07:08:52;;;;;;;;;;;17.80;99.90;;;;;;6711306;88;20077;-79
2023/09/28 07:18:53;;;;;;;;;;;18.10;99.90;;;;;;6715804;88;20177;-80
2023/09/28 07:28:54;;;;;;;;;;;18.50;99.90;;;;;;6706673;88;20167;-79
2023/09/28 07:38:54;;;;;;;;;;;19.10;99.90;;;;;;6694661;88;20113;-78
2023/09/28 07:48:56;;;;;;;;;;;19.70;99.90;;;;;;6701937;88;20086;-80
2023/09/28 07:58:57;;;;;;;;;;;20.50;99.90;;;;;;6706388;88;20077;-80
2023/09/28 08:08:58;;;;;;;;;;;23.30;99.90;;;;;;6704188;88;20134;-79
2023/09/28 08:18:58;;;;;;;;;;;23.50;99.90;;;;;;6717346;88;20056;-80
2023/09/28 08:28:59;;;;;;;;;;;24.40;99.90;;;;;;6711805;88;20477;-80
2023/09/28 08:38:59;;;;;;;;;;;23.00;99.90;;;;;;6712852;88;20043;-79
2023/09/28 08:49:05;;;;;;;;;;;22.90;99.90;;;;;;6716629;88;20054;-80
2023/09/28 08:59:05;;;;;;;;;;;23.90;99.90;;;;;;6716912;88;20052;-76
2023/09/28 09:09:06;;;;;;;;;;;24.40;99.90;;;;;;6711367;88;20062;-79
2023/09/28 09:19:07;;;;;;;;;;;25.30;99.90;;;;;;6716111;88;20063;-79
2023/09/28 09:29:07;;;;;;;;;;;26.10;99.90;;;;;;6728591;88;20712;-82
2023/09/28 09:39:19;;;;;;;;;;;25.60;99.90;;;;;;6715867;88;20091;-80
2023/09/28 09:49:23;;;;;;;;;;;26.80;99.90;;;;;;6712322;88;20055;-79
2023/09/28 09:59:23;;;;;;;;;;;27.70;99.90;;;;;;6720930;88;20069;-79
2023/09/28 10:09:24;;;;;;;;;;;27.00;99.90;;;;;;6711451;88;20090;-79
2023/09/28 10:19:25;;;;;;;;;;;28.10;99.90;;;;;;6716284;88;20054;-79
2023/09/28 10:29:32;;;;;;;;;;;28.10;99.90;;;;;;6724129;88;20518;-79
2023/09/28 10:39:32;;;;;;;;;;;29.10;99.90;;;;;;6716436;88;20083;-80
2023/09/28 10:49:33;;;;;;;;;;;29.10;99.90;;;;;;6717183;88;20089;-82
2023/09/28 10:59:35;;;;;;;;;;;29.20;99.90;;;;;;6713961;88;20074;-81
2023/09/28 11:09:38;;;;;;;;;;;28.80;99.90;;;;;;6715013;88;20076;-79
2023/09/28 11:19:38;;;;;;;;;;;28.10;99.90;;;;;;6726297;88;20577;-78
2023/09/28 11:29:40;;;;;;;;;;;27.80;99.90;;;;;;6716575;88;20131;-78
2023/09/28 11:39:41;;;;;;;;;;;28.20;99.90;;;;;;6711996;88;20069;-78
2023/09/28 11:49:43;;;;;;;;;;;29.10;99.90;;;;;;6713142;88;20121;-80
2023/09/28 11:59:43;;;;;;;;;;;30.30;99.90;;;;;;6716145;88;20051;-80
2023/09/28 12:09:44;;;;;;;;;;;30.30;99.90;;;;;;6721848;88;20074;-79
2023/09/28 12:19:44;;;;;;;;;;;29.90;99.90;;;;;;6713039;88;20066;-79
2023/09/28 12:29:45;;;;;;;;;;;30.20;99.90;;;;;;6715504;88;20167;-79
2023/09/28 12:39:45;;;;;;;;;;;30.70;99.90;;;;;;6721702;88;20706;-79
2023/09/28 12:49:46;;;;;;;;;;;30.70;99.90;;;;;;6726705;88;20111;-79
2023/09/28 12:59:47;;;;;;;;;;;30.10;99.90;;;;;;6715392;88;20048;-77
2023/09/28 13:09:47;;;;;;;;;;;30.50;99.90;;;;;;6713455;88;20076;-76
2023/09/28 13:19:48;;;;;;;;;;;30.10;99.90;;;;;;6714590;88;20104;-76
2023/09/28 13:29:48;;;;;;;;;;;30.30;99.90;;;;;;6711003;88;20561;-78
2023/09/28 13:39:49;;;;;;;;;;;29.80;99.90;;;;;;6718733;88;20096;-77
2023/09/28 13:49:49;;;;;;;;;;;30.20;99.90;;;;;;6717454;88;20101;-77
2023/09/28 13:59:53;;;;;;;;;;;29.90;99.90;;;;;;6719499;88;20620;-76
2023/09/28 14:09:55;;;;;;;;;;;30.40;99.90;;;;;;6711233;88;20066;-78
2023/09/28 14:19:57;;;;;;;;;;;29.40;99.90;;;;;;6706677;88;20066;-76
2023/09/28 14:29:57;;;;;;;;;;;29.20;99.90;;;;;;6714162;88;20197;-79
2023/09/28 14:39:59;;;;;;;;;;;29.00;99.90;;;;;;6716568;88;20525;-79
2023/09/28 14:50:02;;;;;;;;;;;28.10;99.90;;;;;;6716609;88;20521;-78
2023/09/28 15:00:07;;;;;;;;;;;27.80;99.90;;;;;;6717319;88;20477;-79
2023/09/28 15:10:09;;;;;;;;;;;27.60;99.90;;;;;;6700139;88;20062;-79
2023/09/28 15:20:10;;;;;;;;;;;27.40;99.90;;;;;;6724961;88;20058;-75
2023/09/28 15:30:11;;;;;;;;;;;27.10;99.90;;;;;;6713789;88;20064;-77
2023/09/28 15:40:12;;;;;;;;;;;26.80;99.90;;;;;;6714552;88;20070;-77
2023/09/28 15:50:14;;;;;;;;;;;26.60;99.90;;;;;;6715190;88;20171;-76
2023/09/28 16:00:14;;;;;;;;;;;26.40;99.90;;;;;;6713684;88;20080;-77
2023/09/28 16:10:15;;;;;;;;;;;25.90;99.90;;;;;;6713006;88;20151;-79
2023/09/28 16:20:16;;;;;;;;;;;25.60;99.90;;;;;;6713128;88;20059;-76
2023/09/28 16:30:16;;;;;;;;;;;25.30;99.90;;;;;;6713311;88;20170;-77
2023/09/28 16:40:17;;;;;;;;;;;24.90;99.90;;;;;;6713463;88;20063;-78
2023/09/28 16:50:17;;;;;;;;;;;24.60;99.90;;;;;;6699988;88;20047;-75
2023/09/28 17:00:18;;;;;;;;;;;24.10;99.90;;;;;;6704102;88;20098;-75
2023/09/28 17:10:23;;;;;;;;;;;23.70;99.90;;;;;;6703104;88;20074;-76
2023/09/28 17:20:23;;;;;;;;;;;23.30;99.90;;;;;;6707627;88;20051;-76
2023/09/28 17:30:25;;;;;;;;;;;23.00;99.90;;;;;;6705442;88;20109;-75
2023/09/28 17:40:25;;;;;;;;;;;22.70;99.90;;;;;;6707562;88;20113;-76
2023/09/28 17:50:26;;;;;;;;;;;22.40;99.90;;;;;;6713429;88;20087;-76
2023/09/28 18:00:26;;;;;;;;;;;22.10;99.90;;;;;;6714140;88;20131;-76
2023/09/28 18:10:27;;;;;;;;;;;21.80;99.90;;;;;;6713241;88;20108;-76
2023/09/28 18:20:27;;;;;;;;;;;21.40;99.90;;;;;;6709396;88;20145;-76
2023/09/28 18:30:28;;;;;;;;;;;21.10;99.90;;;;;;6730692;88;20104;-79
2023/09/28 18:40:28;;;;;;;;;;;21.00;99.90;;;;;;6721762;88;20066;-77
2023/09/28 18:50:29;;;;;;;;;;;20.70;99.90;;;;;;6711772;88;22164;-78
2023/09/28 19:11:31;;;;;;;;;;;20.30;99.90;;;;;;6719868;88;20062;-80
2023/09/28 19:21:31;;;;;;;;;;;20.10;99.90;;;;;;6727853;88;20076;-79
2023/09/28 19:31:32;;;;;;;;;;;20.10;99.90;;;;;;6733909;88;20066;-79
2023/09/28 19:44:15;;;;;;;;;;;19.90;99.90;;;;;;6802667;86;20043;-82
2023/09/28 19:54:15;;;;;;;;;;;19.80;99.90;;;;;;6796150;87;20152;-79
2023/09/28 20:04:16;;;;;;;;;;;19.60;99.90;;;;;;6795590;87;20057;-78
2023/09/28 20:14:16;;;;;;;;;;;19.30;99.90;;;;;;6788319;87;20218;-79
2023/09/28 20:24:17;;;;;;;;;;;19.10;99.90;;;;;;6788278;87;20062;-80
2023/09/28 20:34:17;;;;;;;;;;;19.00;99.90;;;;;;6783269;87;20066;-80
2023/09/28 20:44:18;;;;;;;;;;;19.00;99.90;;;;;;6755335;88;20055;-79
2023/09/28 20:54:18;;;;;;;;;;;18.60;99.90;;;;;;6742987;88;20094;-80
2023/09/28 21:04:19;;;;;;;;;;;18.30;99.90;;;;;;6741510;88;20058;-79
2023/09/28 21:14:20;;;;;;;;;;;18.10;99.90;;;;;;6755412;88;20175;-79
2023/09/28 21:24:20;;;;;;;;;;;17.90;99.90;;;;;;6761300;88;20513;-80
2023/09/28 21:34:21;;;;;;;;;;;17.80;99.90;;;;;;6765100;88;20062;-80
2023/09/28 21:44:21;;;;;;;;;;;17.60;99.90;;;;;;6772234;88;20164;-79
2023/09/28 21:54:22;;;;;;;;;;;17.50;99.90;;;;;;6760945;88;20078;-80
2023/09/28 22:04:22;;;;;;;;;;;17.50;99.90;;;;;;6760774;88;20549;-80
2023/09/28 22:14:23;;;;;;;;;;;17.40;99.90;;;;;;6782251;87;20062;-79
2023/09/28 22:24:23;;;;;;;;;;;17.30;99.90;;;;;;6775841;87;20077;-77
2023/09/28 22:34:24;;;;;;;;;;;17.30;99.90;;;;;;6771721;87;20104;-78
2023/09/28 22:44:24;;;;;;;;;;;17.40;99.90;;;;;;6772168;87;20114;-78
2023/09/28 22:54:25;;;;;;;;;;;17.40;99.90;;;;;;6776151;87;20065;-79
2023/09/28 23:04:25;;;;;;;;;;;17.50;99.90;;;;;;6780361;87;20070;-79
2023/09/28 23:14:26;;;;;;;;;;;17.60;99.90;;;;;;6776896;87;20053;-78
2023/09/28 23:24:26;;;;;;;;;;;17.60;99.90;;;;;;6775459;87;20065;-78
2023/09/28 23:34:27;;;;;;;;;;;17.60;99.90;;;;;;6797378;87;20099;-82
2023/09/28 23:44:28;;;;;;;;;;;17.70;99.90;;;;;;6769318;87;20092;-77
2023/09/28 23:54:28;;;;;;;;;;;17.70;99.90;;;;;;6770535;87;20573;-77
